Newbury, OH (44065)

6:24 PM EDT on May 24, 2015 (GMT -0400)
Behind St. Helens | | Change Station
CLOSE
Current Station
Personal Weather Station
Location: Newbury, OH
Elevation: 1188 ft
Nearby Weather Stations

Elev 1188 ft 41.47 °N, 81.21 °W | Updated 8 minutes ago

Partly Cloudy
Partly Cloudy
75.7 °F
Feels Like 78 °F
N
0.0
Wind Variable Wind from WSW

Today
High -- | Low -- °F
--% Chance of Precip.
Yesterday
High -- | Low -- °F
Precip. -- in
5:58 AM 8:45 PM
Waxing Crescent, 42% visible
Pressure 30.21 in
Visibility 10.0 miles
Clouds Mostly Cloudy 12000 ft
Overcast 20000 ft
Heat Index 78 °F
Dew Point 52 °F
Humidity 44%
Rainfall 0.00 in
Snow Depth Not available.
UV 1 out of 12
Pollen 10.10 out of 12
Air Quality Not available.
Flu Activity Local Activity
METAR KCGF 242145Z 22010KT 10SM BKN120 OVC200 27/05 A3021

More Conditions Fewer Conditions

Pressure 30.21 in
Visibility 10.0 miles
Clouds Mostly Cloudy 12000 ft
Overcast 20000 ft
Heat Index 78 °F
Dew Point 52 °F
Humidity 44%
Rainfall 0.00 in
Snow Depth Not available.
UV 1 out of 12
Pollen 10.10 out of 12
Air Quality Not available.
Flu Activity Local Activity
METAR KCGF 242145Z 22010KT 10SM BKN120 OVC200 27/05 A3021

More Conditions Fewer Conditions

10-Day Weather Forecast

Almanac

Astronomy

May. 24, 2015 Rise Set
Actual Time
Civil Twilight
Nautical Twilight
Astronomical Twilight
Moon
Length of Visible Light
Length of Day
Tomorrow will be .
, % of the Moon is Illuminated

Today's Extremes

State Highs State Lows

Community

WunderPhotos

Upload Photos

1,823,877 photos uploaded!

WunderBlogs® & News

Nearby

Air Quality

  Air Quality AQ Index Pollutant
Not available.

Snow Depth

Station Depth Elevation

Earthquake Activity

City Distance Mag. Time & Date
Minimum magnitude displayed is 2.5.

Coastal Water Temperatures

Place Temperature

Stations

Nearby Weather Stations

Station Location Temp. Windchill Dew Point Humidity Wind Precip. Elev Updated Type